Time;durP1;ratioP1;P1;durP2;ratioP2;P2;SDS_P1;SDS_P2;PMS_P1;PMS_P2;Temp;Humidity;BMP_temperature;BMP_pressure;BME280_temperature;BME280_humidity;BME280_pressure;Samples;Min_cycle;Max_cycle;Signal;HPM_P1;HPM_P2
2024/01/02 00:02:38;;;;;;;11.60;4.10;;;;;;;;;;5070305;28;20060;-87
2024/01/02 00:05:23;;;;;;;12.75;3.50;;;;;;;;;;5057306;28;20036;-87
2024/01/02 00:08:07;;;;;;;18.95;4.60;;;;;;;;;;5055327;28;20408;-86
2024/01/02 00:10:51;;;;;;;13.60;3.65;;;;;;;;;;5038600;28;20056;-87
2024/01/02 00:13:36;;;;;;;14.48;3.47;;;;;;;;;;5040925;28;20512;-87
2024/01/02 00:16:20;;;;;;;9.52;3.05;;;;;;;;;;5073117;28;20048;-87
2024/01/02 00:19:05;;;;;;;15.02;3.35;;;;;;;;;;5060914;28;20170;-86
2024/01/02 00:21:50;;;;;;;10.35;3.25;;;;;;;;;;5044068;28;20043;-87
2024/01/02 00:24:35;;;;;;;13.63;4.00;;;;;;;;;;5056012;28;20090;-87
2024/01/02 00:27:20;;;;;;;11.60;3.35;;;;;;;;;;5046912;28;20090;-87
2024/01/02 00:30:04;;;;;;;11.30;3.58;;;;;;;;;;5056154;28;20035;-86
2024/01/02 00:32:49;;;;;;;12.30;2.85;;;;;;;;;;5072931;28;20503;-86
2024/01/02 00:35:34;;;;;;;10.80;2.60;;;;;;;;;;5073135;28;20056;-87
2024/01/02 00:38:19;;;;;;;12.30;2.88;;;;;;;;;;5043868;28;20508;-86
2024/01/02 00:41:04;;;;;;;14.30;3.10;;;;;;;;;;5065877;28;20044;-86
2024/01/02 00:43:49;;;;;;;15.77;3.83;;;;;;;;;;5056024;28;20039;-86
2024/01/02 00:46:33;;;;;;;8.55;2.22;;;;;;;;;;5042537;28;20090;-86
2024/01/02 00:49:18;;;;;;;8.13;2.40;;;;;;;;;;5072047;28;20043;-86
2024/01/02 00:52:03;;;;;;;13.35;2.67;;;;;;;;;;5072565;28;20101;-86
2024/01/02 00:54:49;;;;;;;10.80;3.08;;;;;;;;;;5071349;28;20044;-86
2024/01/02 00:57:34;;;;;;;8.80;2.55;;;;;;;;;;5071994;28;20504;-86
2024/01/02 01:00:19;;;;;;;8.38;2.70;;;;;;;;;;5056530;28;20040;-86
2024/01/02 01:03:04;;;;;;;16.30;2.53;;;;;;;;;;5063512;28;20131;-86
2024/01/02 01:05:49;;;;;;;5.82;2.50;;;;;;;;;;5052935;28;20090;-86
2024/01/02 01:08:34;;;;;;;8.13;2.15;;;;;;;;;;5053233;28;20040;-85
2024/01/02 01:11:20;;;;;;;11.35;2.40;;;;;;;;;;5053260;28;20119;-85
2024/01/02 01:14:04;;;;;;;12.57;2.63;;;;;;;;;;5071682;28;20056;-85
2024/01/02 01:16:49;;;;;;;10.93;2.75;;;;;;;;;;5057127;28;20044;-85
2024/01/02 01:19:33;;;;;;;16.20;2.92;;;;;;;;;;5069996;28;20082;-85
2024/01/02 01:22:18;;;;;;;9.35;2.80;;;;;;;;;;5059510;28;20036;-85
2024/01/02 01:25:03;;;;;;;11.43;2.67;;;;;;;;;;5072122;28;20120;-85
2024/01/02 01:27:48;;;;;;;18.23;2.72;;;;;;;;;;5051220;28;20082;-85
2024/01/02 01:30:32;;;;;;;12.98;2.65;;;;;;;;;;5059460;28;20059;-84
2024/01/02 01:33:17;;;;;;;23.02;2.80;;;;;;;;;;5071308;28;20047;-85
2024/01/02 01:36:01;;;;;;;12.45;2.78;;;;;;;;;;5055039;28;20048;-85
2024/01/02 01:38:47;;;;;;;14.52;2.95;;;;;;;;;;5060989;28;20086;-84
2024/01/02 01:41:32;;;;;;;12.32;2.47;;;;;;;;;;5041203;28;20648;-85
2024/01/02 01:44:16;;;;;;;8.38;3.45;;;;;;;;;;5071512;28;20081;-84
2024/01/02 01:47:03;;;;;;;11.10;2.63;;;;;;;;;;5038245;28;20119;-85
2024/01/02 01:49:48;;;;;;;13.48;3.35;;;;;;;;;;5055220;28;20032;-85
2024/01/02 01:52:33;;;;;;;8.85;3.15;;;;;;;;;;5041032;28;20043;-84
2024/01/02 01:55:18;;;;;;;19.10;3.17;;;;;;;;;;5036665;28;20102;-85
2024/01/02 01:58:03;;;;;;;16.98;3.33;;;;;;;;;;5071084;28;20031;-86
2024/01/02 02:00:48;;;;;;;19.35;4.55;;;;;;;;;;5071690;28;20467;-85
2024/01/02 02:03:33;;;;;;;9.57;2.88;;;;;;;;;;5057922;28;20060;-85
2024/01/02 02:06:18;;;;;;;13.75;3.58;;;;;;;;;;5059812;28;20035;-85
2024/01/02 02:09:02;;;;;;;16.27;4.32;;;;;;;;;;5068230;28;20067;-86
2024/01/02 02:11:47;;;;;;;16.02;4.22;;;;;;;;;;5056045;28;20542;-84
2024/01/02 02:14:32;;;;;;;18.00;4.07;;;;;;;;;;5061216;28;20044;-84
2024/01/02 02:17:21;;;;;;;16.30;4.72;;;;;;;;;;5070658;28;20034;-84
2024/01/02 02:20:06;;;;;;;14.98;4.88;;;;;;;;;;5055540;28;20042;-84
2024/01/02 02:22:51;;;;;;;15.65;4.47;;;;;;;;;;5056467;28;20558;-84
2024/01/02 02:25:36;;;;;;;14.95;5.93;;;;;;;;;;5070883;28;20278;-84
2024/01/02 02:28:21;;;;;;;26.25;7.50;;;;;;;;;;5069439;28;20035;-84
2024/01/02 02:31:05;;;;;;;22.17;5.70;;;;;;;;;;5056158;28;20044;-84
2024/01/02 02:33:50;;;;;;;16.85;5.82;;;;;;;;;;5060534;28;20089;-85
2024/01/02 02:36:34;;;;;;;17.65;5.97;;;;;;;;;;5055233;28;20032;-85
2024/01/02 02:39:19;;;;;;;19.00;6.32;;;;;;;;;;5064988;28;20495;-84
2024/01/02 02:42:04;;;;;;;22.02;6.75;;;;;;;;;;5061568;28;20043;-84
2024/01/02 02:44:48;;;;;;;24.10;8.55;;;;;;;;;;5050770;28;20040;-84
2024/01/02 02:47:32;;;;;;;21.92;6.95;;;;;;;;;;5063495;28;20072;-84
2024/01/02 02:50:17;;;;;;;16.80;6.32;;;;;;;;;;5064463;28;20063;-84
2024/01/02 02:53:02;;;;;;;19.33;6.68;;;;;;;;;;5052636;28;20128;-86
2024/01/02 02:55:47;;;;;;;21.92;6.93;;;;;;;;;;5063440;28;20051;-84
2024/01/02 02:58:31;;;;;;;15.52;7.05;;;;;;;;;;5046961;28;20115;-84
2024/01/02 03:01:23;;;;;;;18.92;6.72;;;;;;;;;;5071632;28;20048;-85
2024/01/02 03:04:07;;;;;;;17.70;6.35;;;;;;;;;;5065525;28;20056;-84
2024/01/02 03:06:52;;;;;;;11.48;6.00;;;;;;;;;;5052131;28;20093;-85
2024/01/02 03:09:36;;;;;;;15.43;5.60;;;;;;;;;;5058598;28;20171;-85
2024/01/02 03:12:21;;;;;;;15.02;6.25;;;;;;;;;;5066191;28;20101;-85
2024/01/02 03:15:06;;;;;;;14.68;7.47;;;;;;;;;;5062166;28;20543;-85
2024/01/02 03:17:50;;;;;;;15.50;5.70;;;;;;;;;;5073712;28;20039;-84
2024/01/02 03:20:35;;;;;;;14.27;5.85;;;;;;;;;;5073812;28;20086;-84
2024/01/02 03:23:20;;;;;;;16.60;5.95;;;;;;;;;;5059066;28;20554;-84
2024/01/02 03:26:05;;;;;;;16.90;5.45;;;;;;;;;;5059455;28;20087;-84
2024/01/02 03:28:49;;;;;;;13.50;5.55;;;;;;;;;;5073363;28;20082;-84
2024/01/02 03:31:34;;;;;;;21.77;5.13;;;;;;;;;;5073273;28;20086;-84
2024/01/02 03:34:19;;;;;;;12.27;5.60;;;;;;;;;;5059287;28;20051;-84
2024/01/02 03:37:03;;;;;;;9.15;4.00;;;;;;;;;;5062334;28;20111;-84
2024/01/02 03:39:48;;;;;;;11.90;4.88;;;;;;;;;;5071576;28;20077;-83
2024/01/02 03:42:32;;;;;;;12.68;4.55;;;;;;;;;;5057879;28;20561;-84
2024/01/02 03:45:17;;;;;;;15.88;4.72;;;;;;;;;;5046497;28;20067;-83
2024/01/02 03:48:01;;;;;;;13.25;4.57;;;;;;;;;;5073589;28;20039;-83
2024/01/02 03:50:46;;;;;;;14.38;5.32;;;;;;;;;;5061563;28;20492;-84
2024/01/02 03:53:31;;;;;;;13.93;5.07;;;;;;;;;;5061656;28;20114;-84
2024/01/02 03:56:16;;;;;;;11.52;5.63;;;;;;;;;;5058625;28;20107;-84
2024/01/02 03:59:01;;;;;;;11.20;5.18;;;;;;;;;;5066866;28;20440;-84
2024/01/02 04:01:46;;;;;;;15.02;6.00;;;;;;;;;;5069505;28;20083;-83
2024/01/02 04:04:30;;;;;;;15.63;5.88;;;;;;;;;;5072968;28;20052;-84
2024/01/02 04:07:15;;;;;;;16.65;5.25;;;;;;;;;;5060365;28;20528;-83
2024/01/02 04:09:59;;;;;;;9.90;4.63;;;;;;;;;;5074048;28;20095;-85
2024/01/02 04:12:44;;;;;;;15.75;5.53;;;;;;;;;;5072497;28;20510;-86
2024/01/02 04:15:28;;;;;;;11.88;5.38;;;;;;;;;;5058134;28;20052;-85
2024/01/02 04:18:13;;;;;;;12.70;5.30;;;;;;;;;;5062397;28;20538;-84
2024/01/02 04:20:58;;;;;;;11.75;5.32;;;;;;;;;;5046249;28;20102;-83
2024/01/02 04:23:43;;;;;;;15.60;5.43;;;;;;;;;;5056882;28;20115;-83
2024/01/02 04:26:28;;;;;;;10.70;4.93;;;;;;;;;;5044522;28;20047;-84
2024/01/02 04:29:12;;;;;;;13.95;4.93;;;;;;;;;;5047535;28;20507;-84
2024/01/02 04:31:59;;;;;;;15.48;4.85;;;;;;;;;;5059111;28;20051;-83
2024/01/02 04:34:43;;;;;;;16.88;4.50;;;;;;;;;;5049810;28;20059;-83
2024/01/02 04:37:27;;;;;;;11.02;3.88;;;;;;;;;;5055300;28;20048;-83
2024/01/02 04:40:12;;;;;;;8.80;4.90;;;;;;;;;;5063144;28;20035;-82
2024/01/02 04:42:57;;;;;;;10.27;5.18;;;;;;;;;;5071334;28;20048;-82
2024/01/02 04:45:41;;;;;;;10.20;3.70;;;;;;;;;;5072532;28;20095;-83
2024/01/02 04:48:26;;;;;;;8.00;3.50;;;;;;;;;;5060759;28;20120;-83
2024/01/02 04:51:11;;;;;;;11.25;3.95;;;;;;;;;;5070942;28;20171;-82
2024/01/02 04:53:55;;;;;;;7.90;3.40;;;;;;;;;;5072555;28;20089;-83
2024/01/02 04:56:40;;;;;;;10.65;3.40;;;;;;;;;;5071736;28;20043;-83
2024/01/02 04:59:24;;;;;;;8.00;3.40;;;;;;;;;;5071815;28;20059;-83
2024/01/02 05:02:10;;;;;;;11.88;3.55;;;;;;;;;;5072144;28;20067;-83
2024/01/02 05:04:55;;;;;;;9.15;3.20;;;;;;;;;;5061423;28;20071;-83
2024/01/02 05:07:39;;;;;;;10.18;3.20;;;;;;;;;;5056455;28;20392;-83
2024/01/02 05:10:24;;;;;;;10.13;3.05;;;;;;;;;;5072117;28;20059;-84
2024/01/02 05:13:08;;;;;;;6.78;3.30;;;;;;;;;;5047891;28;20098;-84
2024/01/02 05:15:52;;;;;;;9.82;3.25;;;;;;;;;;5070261;28;20050;-86
2024/01/02 05:18:37;;;;;;;7.07;3.38;;;;;;;;;;5071437;28;20039;-83
2024/01/02 05:21:21;;;;;;;7.78;3.35;;;;;;;;;;5066189;28;20491;-83
2024/01/02 05:24:06;;;;;;;9.98;4.18;;;;;;;;;;5071150;28;20435;-83
2024/01/02 05:26:51;;;;;;;8.70;2.97;;;;;;;;;;5071109;28;20099;-83
2024/01/02 05:29:36;;;;;;;7.97;2.85;;;;;;;;;;5072283;28;20125;-84
2024/01/02 05:32:20;;;;;;;9.48;3.00;;;;;;;;;;5044142;28;20145;-84
2024/01/02 05:35:05;;;;;;;6.47;2.63;;;;;;;;;;5047232;28;20053;-84
2024/01/02 05:37:50;;;;;;;7.00;2.80;;;;;;;;;;5059649;28;20103;-83
2024/01/02 05:40:34;;;;;;;8.70;2.83;;;;;;;;;;5061649;28;20039;-84
2024/01/02 05:43:19;;;;;;;6.68;2.47;;;;;;;;;;5038016;28;20110;-83
2024/01/02 05:46:04;;;;;;;4.25;2.70;;;;;;;;;;5064814;28;20098;-84
2024/01/02 05:48:49;;;;;;;7.70;2.33;;;;;;;;;;5070305;28;20039;-84
2024/01/02 05:51:33;;;;;;;5.25;2.20;;;;;;;;;;5055702;28;20097;-84
2024/01/02 05:54:18;;;;;;;5.72;1.90;;;;;;;;;;5071404;28;20105;-83
2024/01/02 05:57:03;;;;;;;3.65;1.80;;;;;;;;;;5071076;28;20036;-83
2024/01/02 05:59:47;;;;;;;4.75;2.20;;;;;;;;;;5066652;28;20044;-83
2024/01/02 06:02:32;;;;;;;4.88;2.03;;;;;;;;;;5071200;28;20130;-83
2024/01/02 06:05:17;;;;;;;4.30;2.35;;;;;;;;;;5062259;28;20043;-85
2024/01/02 06:08:01;;;;;;;3.60;2.83;;;;;;;;;;5058721;28;20031;-84
2024/01/02 06:10:46;;;;;;;4.85;2.25;;;;;;;;;;5068868;28;20081;-83
2024/01/02 06:13:31;;;;;;;8.88;2.17;;;;;;;;;;5055970;28;20043;-84
2024/01/02 06:16:16;;;;;;;4.90;2.00;;;;;;;;;;5045466;28;20504;-83
2024/01/02 06:19:01;;;;;;;4.35;2.03;;;;;;;;;;5057465;28;20059;-84
2024/01/02 06:21:46;;;;;;;5.90;2.50;;;;;;;;;;5064799;28;20055;-83
2024/01/02 06:24:30;;;;;;;3.63;1.88;;;;;;;;;;5070595;28;20036;-83
2024/01/02 06:27:15;;;;;;;4.25;1.88;;;;;;;;;;5041430;28;20039;-82
2024/01/02 06:30:00;;;;;;;6.53;2.05;;;;;;;;;;5063814;28;20032;-83
2024/01/02 06:32:45;;;;;;;4.45;2.15;;;;;;;;;;5070445;28;20429;-83
2024/01/02 06:35:30;;;;;;;4.00;2.17;;;;;;;;;;5055103;28;20135;-83
2024/01/02 06:38:14;;;;;;;4.97;2.13;;;;;;;;;;5055168;28;20086;-83
2024/01/02 06:41:00;;;;;;;3.80;1.70;;;;;;;;;;5070604;28;20069;-83
2024/01/02 06:43:44;;;;;;;2.42;1.60;;;;;;;;;;5059748;28;20170;-83
2024/01/02 06:46:29;;;;;;;3.08;1.50;;;;;;;;;;5070354;28;20043;-83
2024/01/02 06:49:14;;;;;;;2.85;1.33;;;;;;;;;;5069922;28;20124;-83
2024/01/02 06:51:58;;;;;;;2.83;1.52;;;;;;;;;;5060572;28;20043;-83
2024/01/02 06:54:43;;;;;;;3.75;1.50;;;;;;;;;;5055444;28;20127;-83
2024/01/02 06:57:28;;;;;;;4.22;1.60;;;;;;;;;;5070559;28;20114;-83
2024/01/02 07:00:13;;;;;;;3.67;1.90;;;;;;;;;;5070665;28;20102;-83
2024/01/02 07:02:58;;;;;;;4.40;1.65;;;;;;;;;;5069370;28;20055;-83
2024/01/02 07:05:43;;;;;;;3.10;1.65;;;;;;;;;;5054563;28;20035;-83
2024/01/02 07:08:28;;;;;;;3.50;1.40;;;;;;;;;;5054600;28;20475;-83
2024/01/02 07:11:12;;;;;;;4.32;1.75;;;;;;;;;;5070024;28;20093;-83
2024/01/02 07:13:57;;;;;;;3.58;2.08;;;;;;;;;;5067549;28;20044;-83
2024/01/02 07:16:42;;;;;;;3.78;2.30;;;;;;;;;;5065284;28;20124;-83
2024/01/02 07:19:26;;;;;;;4.25;2.50;;;;;;;;;;5058493;28;20078;-82
2024/01/02 07:22:11;;;;;;;4.43;2.63;;;;;;;;;;5063558;28;20405;-82
2024/01/02 07:24:56;;;;;;;3.97;2.38;;;;;;;;;;5066525;28;20048;-82
2024/01/02 07:27:40;;;;;;;4.30;2.58;;;;;;;;;;5070947;28;20044;-80
2024/01/02 07:30:25;;;;;;;4.90;2.95;;;;;;;;;;5068641;28;20063;-80
2024/01/02 07:33:09;;;;;;;5.82;3.22;;;;;;;;;;5054382;28;20039;-80
2024/01/02 07:35:55;;;;;;;6.20;3.25;;;;;;;;;;5070615;28;20071;-80
2024/01/02 07:38:40;;;;;;;5.88;3.05;;;;;;;;;;5041456;28;20046;-81
2024/01/02 07:41:25;;;;;;;5.72;3.25;;;;;;;;;;5058182;28;20044;-81
2024/01/02 07:44:09;;;;;;;7.10;3.90;;;;;;;;;;5073457;28;20393;-81
2024/01/02 07:46:54;;;;;;;7.45;3.78;;;;;;;;;;5062082;28;20105;-81
2024/01/02 07:49:38;;;;;;;9.05;3.90;;;;;;;;;;5074001;28;20492;-82
2024/01/02 07:52:23;;;;;;;8.02;3.75;;;;;;;;;;5058103;28;20043;-81
2024/01/02 07:55:10;;;;;;;7.25;3.97;;;;;;;;;;5073508;28;20051;-81
2024/01/02 07:57:55;;;;;;;8.63;4.60;;;;;;;;;;5073445;28;20091;-81
2024/01/02 08:00:40;;;;;;;9.98;4.63;;;;;;;;;;5073241;28;20125;-81
2024/01/02 08:03:24;;;;;;;11.32;4.38;;;;;;;;;;5061786;28;20077;-81
2024/01/02 08:06:09;;;;;;;9.40;4.88;;;;;;;;;;5077309;28;20043;-81
2024/01/02 08:08:53;;;;;;;10.18;4.85;;;;;;;;;;5078149;28;20043;-81
2024/01/02 08:11:38;;;;;;;8.75;4.65;;;;;;;;;;5093924;28;20083;-82
2024/01/02 08:14:22;;;;;;;12.43;4.78;;;;;;;;;;5093297;28;20090;-81
2024/01/02 08:17:08;;;;;;;13.23;5.47;;;;;;;;;;5090801;28;20093;-82
2024/01/02 08:19:53;;;;;;;10.15;5.30;;;;;;;;;;5086890;28;20047;-81
2024/01/02 08:22:37;;;;;;;9.63;5.25;;;;;;;;;;5067535;28;20140;-81
2024/01/02 08:25:23;;;;;;;9.63;5.00;;;;;;;;;;5093028;28;20039;-82
2024/01/02 08:28:08;;;;;;;12.43;4.72;;;;;;;;;;5091803;28;20077;-82
2024/01/02 08:30:53;;;;;;;16.17;5.85;;;;;;;;;;5084403;28;20790;-82
2024/01/02 08:33:37;;;;;;;16.70;7.20;;;;;;;;;;5093153;28;20047;-82
2024/01/02 08:36:22;;;;;;;25.13;7.25;;;;;;;;;;5091651;28;20086;-82
2024/01/02 08:39:06;;;;;;;15.30;6.45;;;;;;;;;;5093339;28;20047;-82
2024/01/02 08:41:51;;;;;;;22.85;8.75;;;;;;;;;;5093010;28;20108;-82
2024/01/02 08:44:36;;;;;;;20.98;7.07;;;;;;;;;;5093262;28;20101;-81
2024/01/02 08:47:20;;;;;;;31.73;8.80;;;;;;;;;;5093016;28;20515;-82
2024/01/02 08:50:06;;;;;;;27.98;8.30;;;;;;;;;;5079649;28;20047;-82
2024/01/02 08:52:52;;;;;;;18.85;6.82;;;;;;;;;;5091688;28;20050;-82
2024/01/02 08:55:36;;;;;;;23.92;7.43;;;;;;;;;;5093063;28;20120;-82
2024/01/02 08:58:21;;;;;;;21.85;6.25;;;;;;;;;;5045575;28;20052;-82
2024/01/02 09:01:10;;;;;;;40.97;7.90;;;;;;;;;;5075984;28;20396;-82
2024/01/02 09:03:55;;;;;;;28.23;6.47;;;;;;;;;;5077077;28;20058;-82
2024/01/02 09:06:39;;;;;;;23.60;7.53;;;;;;;;;;5092974;28;20550;-82
2024/01/02 09:09:25;;;;;;;29.00;8.05;;;;;;;;;;5076646;28;20075;-82
2024/01/02 09:12:10;;;;;;;27.83;8.75;;;;;;;;;;5076886;28;20170;-82
2024/01/02 09:14:56;;;;;;;33.50;9.45;;;;;;;;;;5077867;28;20055;-82
2024/01/02 09:17:41;;;;;;;39.13;10.10;;;;;;;;;;5070050;28;20043;-82
2024/01/02 09:20:25;;;;;;;39.25;8.70;;;;;;;;;;5073223;28;20047;-82
2024/01/02 09:23:10;;;;;;;29.95;7.90;;;;;;;;;;5077031;28;20105;-82
2024/01/02 09:25:59;;;;;;;30.23;7.38;;;;;;;;;;5081194;28;20059;-82
2024/01/02 09:28:43;;;;;;;25.05;5.78;;;;;;;;;;5092108;28;20050;-81
2024/01/02 09:31:30;;;;;;;27.15;4.78;;;;;;;;;;5075997;28;20039;-82
2024/01/02 09:34:14;;;;;;;23.58;5.32;;;;;;;;;;5092276;28;20063;-82
2024/01/02 09:36:59;;;;;;;26.65;4.70;;;;;;;;;;5091833;28;20035;-82
2024/01/02 09:39:44;;;;;;;27.58;3.75;;;;;;;;;;5076609;28;20042;-82
2024/01/02 09:42:49;;;;;;;24.25;2.92;;;;;;;;;;5076497;28;20161;-82
2024/01/02 09:45:47;;;;;;;16.05;3.38;;;;;;;;;;5081947;28;20031;-82
2024/01/02 09:48:50;;;;;;;18.20;3.80;;;;;;;;;;5064058;28;20086;-82
2024/01/02 09:51:55;;;;;;;18.83;3.17;;;;;;;;;;5090775;28;20078;-82
2024/01/02 09:54:50;;;;;;;18.10;3.72;;;;;;;;;;5077438;28;20608;-82
2024/01/02 09:57:41;;;;;;;20.98;3.63;;;;;;;;;;5091330;28;20039;-82
2024/01/02 10:00:41;;;;;;;20.88;3.40;;;;;;;;;;5091229;28;20479;-82
2024/01/02 10:03:25;;;;;;;20.83;3.10;;;;;;;;;;5079951;28;20479;-83
2024/01/02 10:06:13;;;;;;;16.10;3.13;;;;;;;;;;5056303;28;20035;-82
2024/01/02 10:09:16;;;;;;;19.83;3.85;;;;;;;;;;5070865;28;20158;-82
2024/01/02 10:12:18;;;;;;;18.85;3.85;;;;;;;;;;5056238;28;20131;-82
2024/01/02 10:15:21;;;;;;;14.93;3.38;;;;;;;;;;5071582;28;20090;-82
2024/01/02 10:18:18;;;;;;;23.05;4.18;;;;;;;;;;5047626;28;20105;-82
2024/01/02 10:21:09;;;;;;;17.50;4.43;;;;;;;;;;5045485;28;20043;-82
2024/01/02 10:24:20;;;;;;;20.70;4.95;;;;;;;;;;5070429;28;20067;-82
2024/01/02 10:27:15;;;;;;;16.85;3.60;;;;;;;;;;5070681;28;20035;-82
2024/01/02 10:30:08;;;;;;;21.08;3.45;;;;;;;;;;5070834;28;20443;-82
2024/01/02 10:33:11;;;;;;;19.05;3.50;;;;;;;;;;5071051;28;20047;-82
2024/01/02 10:36:01;;;;;;;15.88;2.45;;;;;;;;;;5056350;28;20040;-82
2024/01/02 10:38:55;;;;;;;21.38;4.20;;;;;;;;;;5059189;28;20074;-82
2024/01/02 10:41:49;;;;;;;30.63;3.95;;;;;;;;;;5070053;28;20503;-82
2024/01/02 10:44:34;;;;;;;;;;;;;;;;;;5055571;28;20436;-82
2024/01/02 10:47:27;;;;;;;24.00;3.53;;;;;;;;;;5060056;28;19961;-82
2024/01/02 10:50:18;;;;;;;12.15;3.15;;;;;;;;;;5059538;28;20089;-82
2024/01/02 10:53:12;;;;;;;21.45;2.78;;;;;;;;;;5069857;28;20071;-82
2024/01/02 10:56:05;;;;;;;18.27;3.40;;;;;;;;;;5055069;28;20038;-82
2024/01/02 10:58:50;;;;;;;;;;;;;;;;;;5070577;28;20487;-82
2024/01/02 11:01:38;;;;;;;24.50;4.55;;;;;;;;;;5051895;28;19915;-82
2024/01/02 11:04:31;;;;;;;16.23;3.05;;;;;;;;;;5072476;28;20063;-82
2024/01/02 11:07:17;;;;;;;13.88;2.67;;;;;;;;;;5073477;28;20107;-82
2024/01/02 11:10:09;;;;;;;20.77;3.53;;;;;;;;;;5076046;28;20548;-82
2024/01/02 11:12:57;;;;;;;16.55;2.88;;;;;;;;;;5090369;28;20074;-82
2024/01/02 11:15:42;;;;;;;18.15;2.83;;;;;;;;;;5092776;28;20403;-82
2024/01/02 11:18:30;;;;;;;20.95;3.10;;;;;;;;;;5094646;28;20149;-82
2024/01/02 11:21:23;;;;;;;29.33;3.80;;;;;;;;;;5085494;28;20076;-82
2024/01/02 11:24:09;;;;;;;21.17;3.75;;;;;;;;;;5094176;28;20506;-82
2024/01/02 11:26:56;;;;;;;18.48;3.40;;;;;;;;;;5078741;28;20226;-82
2024/01/02 11:29:43;;;;;;;20.85;3.70;;;;;;;;;;5094389;28;20086;-83
2024/01/02 11:32:46;;;;;;;23.60;3.38;;;;;;;;;;5084781;28;20047;-82
2024/01/02 11:35:36;;;;;;;17.13;3.10;;;;;;;;;;5094695;28;20127;-82
2024/01/02 11:38:27;;;;;;;24.88;5.63;;;;;;;;;;5075730;28;20082;-82
2024/01/02 11:41:33;;;;;;;20.83;3.75;;;;;;;;;;5089413;28;20073;-82
2024/01/02 11:44:20;;;;;;;24.75;4.25;;;;;;;;;;5079322;28;20582;-82
2024/01/02 11:47:09;;;;;;;18.58;3.78;;;;;;;;;;5084128;28;20038;-83
2024/01/02 11:50:01;;;;;;;21.63;3.58;;;;;;;;;;5093179;28;20929;-82
2024/01/02 11:52:51;;;;;;;25.20;4.55;;;;;;;;;;5092656;28;20043;-83
2024/01/02 11:55:50;;;;;;;25.83;3.25;;;;;;;;;;5094100;28;20058;-83
2024/01/02 11:58:41;;;;;;;16.67;4.07;;;;;;;;;;5084401;28;20038;-82
2024/01/02 12:01:35;;;;;;;28.92;3.78;;;;;;;;;;5080164;28;20038;-82
2024/01/02 12:04:59;;;;;;;13.45;3.53;;;;;;;;;;5077056;28;20059;-83
2024/01/02 12:07:45;;;;;;;28.35;5.20;;;;;;;;;;5005487;28;20066;-82
2024/01/02 12:10:34;;;;;;;25.30;3.97;;;;;;;;;;5006237;28;20092;-82
2024/01/02 12:13:19;;;;;;;30.58;5.35;;;;;;;;;;5048621;28;20048;-82
2024/01/02 12:16:07;;;;;;;22.63;5.00;;;;;;;;;;5072193;28;20499;-82
2024/01/02 12:18:52;;;;;;;33.53;4.70;;;;;;;;;;5072696;28;20032;-82
2024/01/02 12:21:39;;;;;;;39.65;5.07;;;;;;;;;;5073743;28;20044;-82
2024/01/02 12:24:24;;;;;;;31.33;4.22;;;;;;;;;;5054888;28;20044;-82
2024/01/02 12:27:10;;;;;;;31.15;5.10;;;;;;;;;;5056204;28;20031;-82
2024/01/02 12:30:04;;;;;;;29.27;4.32;;;;;;;;;;5072639;28;20044;-82
2024/01/02 12:33:04;;;;;;;38.95;5.70;;;;;;;;;;5049464;28;20122;-83
2024/01/02 12:36:09;;;;;;;32.42;5.03;;;;;;;;;;5062770;28;20116;-83
2024/01/02 12:38:56;;;;;;;30.05;5.65;;;;;;;;;;5050482;28;20393;-83
2024/01/02 12:41:44;;;;;;;30.00;5.60;;;;;;;;;;5071306;28;20086;-82
2024/01/02 12:44:29;;;;;;;36.58;5.75;;;;;;;;;;5072687;28;20055;-83
2024/01/02 12:47:19;;;;;;;41.70;6.60;;;;;;;;;;5043876;28;20392;-82
2024/01/02 12:50:06;;;;;;;34.55;6.72;;;;;;;;;;5050871;28;20486;-82
2024/01/02 12:53:00;;;;;;;36.75;6.22;;;;;;;;;;5068631;28;20166;-83
2024/01/02 12:55:59;;;;;;;35.95;5.55;;;;;;;;;;5072786;28;20542;-82
2024/01/02 12:58:46;;;;;;;35.03;5.65;;;;;;;;;;5064498;28;20039;-82
2024/01/02 13:01:31;;;;;;;32.97;5.10;;;;;;;;;;5060331;28;20035;-82
2024/01/02 13:04:16;;;;;;;43.05;6.32;;;;;;;;;;5072685;28;20571;-82
2024/01/02 13:07:02;;;;;;;40.10;6.30;;;;;;;;;;5057278;28;20086;-82
2024/01/02 13:09:47;;;;;;;35.88;6.90;;;;;;;;;;5061466;28;20039;-83
2024/01/02 13:12:33;;;;;;;38.88;5.90;;;;;;;;;;5072065;28;20082;-82
2024/01/02 13:15:18;;;;;;;45.85;6.35;;;;;;;;;;5057269;28;20056;-82
2024/01/02 13:18:03;;;;;;;46.88;7.10;;;;;;;;;;5061902;28;20480;-82
2024/01/02 13:20:48;;;;;;;46.53;7.13;;;;;;;;;;5072018;28;20153;-83
2024/01/02 13:23:33;;;;;;;25.92;6.97;;;;;;;;;;5070136;28;20040;-82
2024/01/02 13:26:17;;;;;;;28.45;5.93;;;;;;;;;;5049618;28;20043;-82
2024/01/02 13:29:08;;;;;;;37.28;7.45;;;;;;;;;;5045304;28;20036;-82
2024/01/02 13:31:55;;;;;;;35.40;7.20;;;;;;;;;;5056219;28;20401;-82
2024/01/02 13:34:42;;;;;;;37.45;9.35;;;;;;;;;;5042954;28;20090;-82
2024/01/02 13:37:28;;;;;;;35.90;6.00;;;;;;;;;;5048348;28;20048;-82
2024/01/02 13:40:21;;;;;;;39.80;6.93;;;;;;;;;;5070138;28;20055;-82
2024/01/02 13:43:05;;;;;;;39.40;8.02;;;;;;;;;;5070935;28;20067;-82
2024/01/02 13:45:50;;;;;;;44.58;7.47;;;;;;;;;;5071890;28;20105;-83
2024/01/02 13:48:37;;;;;;;34.72;6.97;;;;;;;;;;5038880;28;20090;-82
2024/01/02 13:51:22;;;;;;;45.15;7.07;;;;;;;;;;5042406;28;20408;-82
2024/01/02 13:54:07;;;;;;;43.45;8.32;;;;;;;;;;5071157;28;20047;-82
2024/01/02 13:56:51;;;;;;;28.83;6.85;;;;;;;;;;5032239;28;20048;-83
2024/01/02 13:59:37;;;;;;;36.42;7.93;;;;;;;;;;5071274;28;20082;-82
2024/01/02 14:02:27;;;;;;;36.83;7.35;;;;;;;;;;5056016;28;20404;-81
2024/01/02 14:05:11;;;;;;;45.72;7.13;;;;;;;;;;5070837;28;20075;-82
2024/01/02 14:07:58;;;;;;;45.58;7.53;;;;;;;;;;5043836;28;20034;-83
2024/01/02 14:10:42;;;;;;;43.80;8.57;;;;;;;;;;5070628;28;20032;-82
2024/01/02 14:13:29;;;;;;;44.55;7.50;;;;;;;;;;5056332;28;20040;-82
2024/01/02 14:16:14;;;;;;;40.33;7.32;;;;;;;;;;5045073;28;20098;-82
2024/01/02 14:18:58;;;;;;;48.65;8.27;;;;;;;;;;5055174;28;20031;-83
2024/01/02 14:21:43;;;;;;;38.80;8.02;;;;;;;;;;5042125;28;20043;-82
2024/01/02 14:24:31;;;;;;;63.28;10.70;;;;;;;;;;5042529;28;20137;-82
2024/01/02 14:27:18;;;;;;;45.15;8.32;;;;;;;;;;5070494;28;20043;-82
2024/01/02 14:30:17;;;;;;;42.25;10.20;;;;;;;;;;5043133;28;20077;-82
2024/01/02 14:33:20;;;;;;;47.72;8.65;;;;;;;;;;5070130;28;20091;-82
2024/01/02 14:36:11;;;;;;;49.90;10.68;;;;;;;;;;5055567;28;20043;-82
2024/01/02 14:39:05;;;;;;;50.00;9.95;;;;;;;;;;5053285;28;20113;-82
2024/01/02 14:42:00;;;;;;;45.05;9.98;;;;;;;;;;5062697;28;20051;-81
2024/01/02 14:45:04;;;;;;;39.80;9.90;;;;;;;;;;5059933;28;20082;-81
2024/01/02 14:48:07;;;;;;;43.22;11.02;;;;;;;;;;5064047;28;20094;-80
2024/01/02 14:50:58;;;;;;;35.40;10.18;;;;;;;;;;5069612;28;20039;-80
2024/01/02 14:53:52;;;;;;;33.50;8.93;;;;;;;;;;5054206;28;20044;-79
2024/01/02 14:56:54;;;;;;;41.47;8.63;;;;;;;;;;5045988;28;20047;-84
2024/01/02 14:59:42;;;;;;;37.45;8.50;;;;;;;;;;5070002;28;20063;-80
2024/01/02 15:02:45;;;;;;;28.63;8.00;;;;;;;;;;5065825;28;20095;-78
2024/01/02 15:05:41;;;;;;;29.60;6.90;;;;;;;;;;5050249;28;20068;-78
2024/01/02 15:08:38;;;;;;;14.45;6.05;;;;;;;;;;5053121;28;20078;-91
2024/01/02 15:11:26;;;;;;;22.85;7.65;;;;;;;;;;5046841;28;20642;-80
2024/01/02 15:14:20;;;;;;;22.58;7.47;;;;;;;;;;5069889;28;20050;-83
2024/01/02 15:17:18;;;;;;;25.45;8.75;;;;;;;;;;5068267;28;20090;-81
2024/01/02 15:20:08;;;;;;;28.63;8.23;;;;;;;;;;5070139;28;20039;-82
2024/01/02 15:23:00;;;;;;;20.48;7.80;;;;;;;;;;5062063;28;20035;-82
2024/01/02 15:25:47;;;;;;;20.55;7.72;;;;;;;;;;5067037;28;20095;-81
2024/01/02 15:28:35;;;;;;;20.02;7.70;;;;;;;;;;5064528;28;20035;-82
2024/01/02 15:31:30;;;;;;;15.25;6.45;;;;;;;;;;5062265;28;20031;-83
2024/01/02 15:34:36;;;;;;;17.17;7.15;;;;;;;;;;5068230;28;20082;-81
2024/01/02 15:37:25;;;;;;;17.80;6.80;;;;;;;;;;5060578;28;20054;-81
2024/01/02 15:40:10;;;;;;;14.80;6.95;;;;;;;;;;5052632;28;20075;-82
2024/01/02 15:43:10;;;;;;;15.32;6.85;;;;;;;;;;5070229;28;20044;-81
2024/01/02 15:46:16;;;;;;;14.98;6.47;;;;;;;;;;5055424;28;20038;-81
2024/01/02 15:49:19;;;;;;;12.02;6.75;;;;;;;;;;5062426;28;20031;-82
2024/01/02 15:52:04;;;;;;;17.65;6.57;;;;;;;;;;5062475;28;20556;-82
2024/01/02 15:55:01;;;;;;;11.90;5.55;;;;;;;;;;5055682;28;20058;-81
2024/01/02 15:57:55;;;;;;;10.48;5.35;;;;;;;;;;5072223;28;20040;-81
2024/01/02 16:00:44;;;;;;;10.68;5.43;;;;;;;;;;5071629;28;20043;-81
2024/01/02 16:03:42;;;;;;;6.88;4.32;;;;;;;;;;5062370;28;20059;-82
2024/01/02 16:06:45;;;;;;;7.15;4.45;;;;;;;;;;5082315;28;20153;-81
2024/01/02 16:09:51;;;;;;;7.70;4.72;;;;;;;;;;5080555;28;20043;-81
2024/01/02 16:12:55;;;;;;;7.20;4.20;;;;;;;;;;5093606;28;20457;-82
2024/01/02 16:15:48;;;;;;;5.07;3.50;;;;;;;;;;5093382;28;20043;-81
2024/01/02 16:18:33;;;;;;;;;;;;;;;;;;5093457;28;20223;-81
2024/01/02 16:21:20;;;;;;;4.72;3.17;;;;;;;;;;5093317;28;19961;-82
2024/01/02 16:24:32;;;;;;;3.90;2.65;;;;;;;;;;5080920;28;20107;-82
2024/01/02 16:27:42;;;;;;;4.22;2.75;;;;;;;;;;5084885;28;20503;-82
2024/01/02 16:30:40;;;;;;;3.70;2.60;;;;;;;;;;5076451;28;20073;-90
2024/01/02 16:33:37;;;;;;;4.50;2.60;;;;;;;;;;5074402;28;20123;-84
2024/01/02 16:36:34;;;;;;;5.47;2.70;;;;;;;;;;5067755;28;20044;-84